Wabasha, Minnesota
Current Conditions -  °F | °C
As of 3:34 AM on Monday 24 Nov 2014 (Local Time) from KONA Reporting Station
Drizzle Drizzle  
Wind Chill: 25°   Ceiling: 1200
Heat Index: 36°   Visibility: 7mi
Dew Point: 34°   Wind: 17mph
Humidity: 93%   Direction: 320°NW
Pressure: 29.21"   Gusts: 23mph
Location:  44.38°N, 92.04°W
Report Text: KONA 240934Z AUTO 32015G20KT 7SM -DZ OVC012 02/01 A2921 RMK AO2
Loading
Personal Weather Stations






























Interactive Weather Map New forecast layout! Learn more

10-Day Weather Forecast

Advertisements
Track Severe Weather on mobile